sensor_id;sensor_type;location;lat;lon;timestamp;P1;durP1;ratioP1;P2;durP2;ratioP2
79212;SDS011;68639;52.380;9.822;2023-05-15T00:00:57;14.70;;;10.60;;
79212;SDS011;68639;52.380;9.822;2023-05-15T00:03:23;13.57;;;11.00;;
79212;SDS011;68639;52.380;9.822;2023-05-15T00:05:50;15.60;;;11.50;;
79212;SDS011;68639;52.380;9.822;2023-05-15T00:08:16;12.23;;;10.63;;
79212;SDS011;68639;52.380;9.822;2023-05-15T00:10:41;15.37;;;11.10;;
79212;SDS011;68639;52.380;9.822;2023-05-15T00:13:06;15.80;;;11.33;;
79212;SDS011;68639;52.380;9.822;2023-05-15T00:15:32;14.50;;;10.70;;
79212;SDS011;68639;52.380;9.822;2023-05-15T00:17:57;17.33;;;11.80;;
79212;SDS011;68639;52.380;9.822;2023-05-15T00:20:22;15.67;;;11.30;;
79212;SDS011;68639;52.380;9.822;2023-05-15T00:22:47;15.90;;;12.27;;
79212;SDS011;68639;52.380;9.822;2023-05-15T00:25:13;14.10;;;11.70;;
79212;SDS011;68639;52.380;9.822;2023-05-15T00:27:38;12.77;;;11.47;;
79212;SDS011;68639;52.380;9.822;2023-05-15T00:30:04;14.07;;;12.00;;
79212;SDS011;68639;52.380;9.822;2023-05-15T00:32:29;17.90;;;11.33;;
79212;SDS011;68639;52.380;9.822;2023-05-15T00:34:55;15.37;;;11.90;;
79212;SDS011;68639;52.380;9.822;2023-05-15T00:37:20;14.93;;;11.17;;
79212;SDS011;68639;52.380;9.822;2023-05-15T00:39:45;17.13;;;11.80;;
79212;SDS011;68639;52.380;9.822;2023-05-15T00:42:10;15.90;;;11.67;;
79212;SDS011;68639;52.380;9.822;2023-05-15T00:44:35;15.10;;;12.50;;
79212;SDS011;68639;52.380;9.822;2023-05-15T00:47:02;14.63;;;12.17;;
79212;SDS011;68639;52.380;9.822;2023-05-15T00:49:28;19.43;;;12.87;;
79212;SDS011;68639;52.380;9.822;2023-05-15T00:51:53;19.13;;;12.80;;
79212;SDS011;68639;52.380;9.822;2023-05-15T00:54:19;15.77;;;12.53;;
79212;SDS011;68639;52.380;9.822;2023-05-15T00:56:44;18.23;;;13.47;;
79212;SDS011;68639;52.380;9.822;2023-05-15T00:59:10;19.40;;;15.17;;
79212;SDS011;68639;52.380;9.822;2023-05-15T01:01:35;19.57;;;15.03;;
79212;SDS011;68639;52.380;9.822;2023-05-15T01:04:01;16.70;;;14.53;;
79212;SDS011;68639;52.380;9.822;2023-05-15T01:06:27;19.07;;;15.10;;
79212;SDS011;68639;52.380;9.822;2023-05-15T01:08:53;21.03;;;15.97;;
79212;SDS011;68639;52.380;9.822;2023-05-15T01:11:20;18.50;;;14.60;;
79212;SDS011;68639;52.380;9.822;2023-05-15T01:13:47;19.57;;;15.33;;
79212;SDS011;68639;52.380;9.822;2023-05-15T01:16:12;17.23;;;14.93;;
79212;SDS011;68639;52.380;9.822;2023-05-15T01:18:37;19.47;;;14.70;;
79212;SDS011;68639;52.380;9.822;2023-05-15T01:23:44;21.80;;;15.03;;
79212;SDS011;68639;52.380;9.822;2023-05-15T01:28:47;22.60;;;14.50;;
79212;SDS011;68639;52.380;9.822;2023-05-15T01:31:17;16.77;;;14.17;;
79212;SDS011;68639;52.380;9.822;2023-05-15T01:33:44;17.60;;;14.07;;
79212;SDS011;68639;52.380;9.822;2023-05-15T01:36:33;20.83;;;14.80;;
79212;SDS011;68639;52.380;9.822;2023-05-15T01:38:56;19.80;;;15.40;;
79212;SDS011;68639;52.380;9.822;2023-05-15T01:41:34;17.53;;;13.67;;
79212;SDS011;68639;52.380;9.822;2023-05-15T01:44:05;20.67;;;13.83;;
79212;SDS011;68639;52.380;9.822;2023-05-15T01:46:31;21.07;;;13.57;;
79212;SDS011;68639;52.380;9.822;2023-05-15T01:48:59;18.07;;;14.13;;
79212;SDS011;68639;52.380;9.822;2023-05-15T01:51:25;17.57;;;13.73;;
79212;SDS011;68639;52.380;9.822;2023-05-15T01:53:51;15.83;;;13.17;;
79212;SDS011;68639;52.380;9.822;2023-05-15T01:56:17;16.83;;;13.73;;
79212;SDS011;68639;52.380;9.822;2023-05-15T01:58:44;14.93;;;13.10;;
79212;SDS011;68639;52.380;9.822;2023-05-15T02:01:09;19.33;;;14.30;;
79212;SDS011;68639;52.380;9.822;2023-05-15T02:03:35;16.83;;;13.50;;
79212;SDS011;68639;52.380;9.822;2023-05-15T02:06:01;18.10;;;14.10;;
79212;SDS011;68639;52.380;9.822;2023-05-15T02:08:27;16.67;;;14.13;;
79212;SDS011;68639;52.380;9.822;2023-05-15T02:10:54;17.93;;;13.53;;
79212;SDS011;68639;52.380;9.822;2023-05-15T02:13:20;17.77;;;13.37;;
79212;SDS011;68639;52.380;9.822;2023-05-15T02:15:45;17.00;;;14.07;;
79212;SDS011;68639;52.380;9.822;2023-05-15T02:18:11;15.97;;;13.40;;
79212;SDS011;68639;52.380;9.822;2023-05-15T02:20:36;16.33;;;13.37;;
79212;SDS011;68639;52.380;9.822;2023-05-15T02:23:01;20.90;;;14.17;;
79212;SDS011;68639;52.380;9.822;2023-05-15T02:25:35;16.47;;;14.33;;
79212;SDS011;68639;52.380;9.822;2023-05-15T02:28:02;18.70;;;13.90;;
79212;SDS011;68639;52.380;9.822;2023-05-15T02:38:00;19.63;;;14.43;;
79212;SDS011;68639;52.380;9.822;2023-05-15T02:40:26;17.30;;;14.50;;
79212;SDS011;68639;52.380;9.822;2023-05-15T02:42:52;18.40;;;14.33;;
79212;SDS011;68639;52.380;9.822;2023-05-15T02:45:18;18.40;;;14.33;;
79212;SDS011;68639;52.380;9.822;2023-05-15T02:47:44;24.00;;;14.83;;
79212;SDS011;68639;52.380;9.822;2023-05-15T02:50:09;17.23;;;13.37;;
79212;SDS011;68639;52.380;9.822;2023-05-15T02:52:34;18.60;;;14.90;;
79212;SDS011;68639;52.380;9.822;2023-05-15T02:55:00;16.90;;;14.20;;
79212;SDS011;68639;52.380;9.822;2023-05-15T02:57:25;17.07;;;13.63;;
79212;SDS011;68639;52.380;9.822;2023-05-15T02:59:51;17.50;;;14.50;;
79212;SDS011;68639;52.380;9.822;2023-05-15T03:02:16;16.70;;;14.23;;
79212;SDS011;68639;52.380;9.822;2023-05-15T03:04:42;18.73;;;14.23;;
79212;SDS011;68639;52.380;9.822;2023-05-15T03:07:07;17.57;;;13.53;;
79212;SDS011;68639;52.380;9.822;2023-05-15T03:09:32;17.93;;;14.00;;
79212;SDS011;68639;52.380;9.822;2023-05-15T03:11:57;17.60;;;14.20;;
79212;SDS011;68639;52.380;9.822;2023-05-15T03:14:23;18.03;;;14.43;;
79212;SDS011;68639;52.380;9.822;2023-05-15T03:16:48;19.53;;;13.67;;
79212;SDS011;68639;52.380;9.822;2023-05-15T03:19:13;16.20;;;13.83;;
79212;SDS011;68639;52.380;9.822;2023-05-15T03:21:38;17.53;;;14.30;;
79212;SDS011;68639;52.380;9.822;2023-05-15T03:24:04;17.77;;;14.30;;
79212;SDS011;68639;52.380;9.822;2023-05-15T03:26:29;19.37;;;14.27;;
79212;SDS011;68639;52.380;9.822;2023-05-15T03:28:54;16.83;;;14.70;;
79212;SDS011;68639;52.380;9.822;2023-05-15T03:31:20;18.57;;;14.67;;
79212;SDS011;68639;52.380;9.822;2023-05-15T03:33:45;17.40;;;13.63;;
79212;SDS011;68639;52.380;9.822;2023-05-15T03:36:13;16.97;;;14.37;;
79212;SDS011;68639;52.380;9.822;2023-05-15T03:38:39;20.47;;;13.90;;
79212;SDS011;68639;52.380;9.822;2023-05-15T03:41:04;16.07;;;13.47;;
79212;SDS011;68639;52.380;9.822;2023-05-15T03:43:29;17.03;;;13.63;;
79212;SDS011;68639;52.380;9.822;2023-05-15T03:45:55;15.90;;;13.83;;
79212;SDS011;68639;52.380;9.822;2023-05-15T03:48:20;18.10;;;14.07;;
79212;SDS011;68639;52.380;9.822;2023-05-15T03:50:45;15.83;;;14.13;;
79212;SDS011;68639;52.380;9.822;2023-05-15T03:53:11;16.87;;;13.77;;
79212;SDS011;68639;52.380;9.822;2023-05-15T03:55:36;17.23;;;13.33;;
79212;SDS011;68639;52.380;9.822;2023-05-15T03:58:01;15.77;;;13.50;;
79212;SDS011;68639;52.380;9.822;2023-05-15T04:00:26;19.97;;;13.67;;
79212;SDS011;68639;52.380;9.822;2023-05-15T04:02:52;17.73;;;12.57;;
79212;SDS011;68639;52.380;9.822;2023-05-15T04:05:17;14.93;;;12.90;;
79212;SDS011;68639;52.380;9.822;2023-05-15T04:07:43;17.87;;;12.97;;
79212;SDS011;68639;52.380;9.822;2023-05-15T04:10:09;15.77;;;13.13;;
79212;SDS011;68639;52.380;9.822;2023-05-15T04:12:34;15.63;;;13.60;;
79212;SDS011;68639;52.380;9.822;2023-05-15T04:18:00;15.77;;;13.37;;
79212;SDS011;68639;52.380;9.822;2023-05-15T04:20:25;20.03;;;13.97;;
79212;SDS011;68639;52.380;9.822;2023-05-15T04:22:51;15.00;;;13.50;;
79212;SDS011;68639;52.380;9.822;2023-05-15T04:25:16;15.87;;;12.67;;
79212;SDS011;68639;52.380;9.822;2023-05-15T04:27:42;25.03;;;14.00;;
79212;SDS011;68639;52.380;9.822;2023-05-15T04:30:07;16.95;;;13.40;;
79212;SDS011;68639;52.380;9.822;2023-05-15T04:32:33;17.52;;;13.07;;
79212;SDS011;68639;52.380;9.822;2023-05-15T04:34:59;18.33;;;13.35;;
79212;SDS011;68639;52.380;9.822;2023-05-15T04:37:25;19.07;;;13.13;;
79212;SDS011;68639;52.380;9.822;2023-05-15T04:39:50;16.85;;;13.80;;
79212;SDS011;68639;52.380;9.822;2023-05-15T04:42:16;18.07;;;13.63;;
79212;SDS011;68639;52.380;9.822;2023-05-15T04:44:41;16.80;;;12.98;;
79212;SDS011;68639;52.380;9.822;2023-05-15T04:47:06;17.30;;;13.25;;
79212;SDS011;68639;52.380;9.822;2023-05-15T04:49:32;18.30;;;12.98;;
79212;SDS011;68639;52.380;9.822;2023-05-15T04:51:57;21.80;;;13.60;;
79212;SDS011;68639;52.380;9.822;2023-05-15T04:54:22;16.52;;;13.52;;
79212;SDS011;68639;52.380;9.822;2023-05-15T04:56:48;19.13;;;13.25;;
79212;SDS011;68639;52.380;9.822;2023-05-15T04:59:13;21.85;;;13.98;;
79212;SDS011;68639;52.380;9.822;2023-05-15T05:01:39;18.17;;;12.82;;
79212;SDS011;68639;52.380;9.822;2023-05-15T05:04:05;19.88;;;13.55;;
79212;SDS011;68639;52.380;9.822;2023-05-15T05:06:30;17.10;;;13.07;;
79212;SDS011;68639;52.380;9.822;2023-05-15T05:08:55;16.00;;;12.40;;
79212;SDS011;68639;52.380;9.822;2023-05-15T05:11:20;17.40;;;12.75;;
79212;SDS011;68639;52.380;9.822;2023-05-15T05:13:46;18.42;;;12.77;;
79212;SDS011;68639;52.380;9.822;2023-05-15T05:16:11;17.15;;;13.27;;
79212;SDS011;68639;52.380;9.822;2023-05-15T05:18:36;16.42;;;12.43;;
79212;SDS011;68639;52.380;9.822;2023-05-15T05:21:02;19.92;;;13.70;;
79212;SDS011;68639;52.380;9.822;2023-05-15T05:23:28;16.45;;;13.05;;
79212;SDS011;68639;52.380;9.822;2023-05-15T05:25:53;22.10;;;13.15;;
79212;SDS011;68639;52.380;9.822;2023-05-15T05:28:18;17.50;;;13.13;;
79212;SDS011;68639;52.380;9.822;2023-05-15T05:30:44;16.98;;;12.93;;
79212;SDS011;68639;52.380;9.822;2023-05-15T05:33:10;18.15;;;13.00;;
79212;SDS011;68639;52.380;9.822;2023-05-15T05:35:35;15.15;;;12.95;;
79212;SDS011;68639;52.380;9.822;2023-05-15T05:38:01;16.70;;;13.95;;
79212;SDS011;68639;52.380;9.822;2023-05-15T05:40:26;17.20;;;13.27;;
79212;SDS011;68639;52.380;9.822;2023-05-15T05:42:51;20.75;;;14.38;;
79212;SDS011;68639;52.380;9.822;2023-05-15T05:45:16;18.88;;;12.63;;
79212;SDS011;68639;52.380;9.822;2023-05-15T05:47:42;15.98;;;13.00;;
79212;SDS011;68639;52.380;9.822;2023-05-15T05:50:07;16.70;;;13.07;;
79212;SDS011;68639;52.380;9.822;2023-05-15T05:52:32;16.10;;;13.00;;
79212;SDS011;68639;52.380;9.822;2023-05-15T05:54:58;19.20;;;13.57;;
79212;SDS011;68639;52.380;9.822;2023-05-15T05:57:23;16.73;;;12.77;;
79212;SDS011;68639;52.380;9.822;2023-05-15T05:59:48;14.57;;;12.13;;
79212;SDS011;68639;52.380;9.822;2023-05-15T06:02:14;17.30;;;11.82;;
79212;SDS011;68639;52.380;9.822;2023-05-15T06:04:39;14.30;;;12.20;;
79212;SDS011;68639;52.380;9.822;2023-05-15T06:07:05;18.52;;;12.32;;
79212;SDS011;68639;52.380;9.822;2023-05-15T06:09:30;14.38;;;12.50;;
79212;SDS011;68639;52.380;9.822;2023-05-15T06:11:55;18.65;;;12.45;;
79212;SDS011;68639;52.380;9.822;2023-05-15T06:14:21;16.48;;;12.82;;
79212;SDS011;68639;52.380;9.822;2023-05-15T06:16:46;15.98;;;11.43;;
79212;SDS011;68639;52.380;9.822;2023-05-15T06:19:11;18.25;;;12.38;;
79212;SDS011;68639;52.380;9.822;2023-05-15T06:21:37;16.20;;;12.35;;
79212;SDS011;68639;52.380;9.822;2023-05-15T06:24:02;14.95;;;11.85;;
79212;SDS011;68639;52.380;9.822;2023-05-15T06:26:27;16.38;;;11.80;;
79212;SDS011;68639;52.380;9.822;2023-05-15T06:28:53;14.35;;;11.90;;
79212;SDS011;68639;52.380;9.822;2023-05-15T06:31:18;17.45;;;11.82;;
79212;SDS011;68639;52.380;9.822;2023-05-15T06:33:44;16.20;;;11.40;;
79212;SDS011;68639;52.380;9.822;2023-05-15T06:36:09;14.93;;;11.90;;
79212;SDS011;68639;52.380;9.822;2023-05-15T06:38:35;14.80;;;11.00;;
79212;SDS011;68639;52.380;9.822;2023-05-15T06:41:00;17.02;;;10.85;;
79212;SDS011;68639;52.380;9.822;2023-05-15T06:43:25;15.38;;;10.50;;
79212;SDS011;68639;52.380;9.822;2023-05-15T06:45:51;14.25;;;10.55;;
79212;SDS011;68639;52.380;9.822;2023-05-15T06:48:16;12.80;;;9.85;;
79212;SDS011;68639;52.380;9.822;2023-05-15T06:50:41;13.80;;;10.77;;
79212;SDS011;68639;52.380;9.822;2023-05-15T06:53:06;18.17;;;10.70;;
79212;SDS011;68639;52.380;9.822;2023-05-15T06:55:31;16.63;;;10.18;;
79212;SDS011;68639;52.380;9.822;2023-05-15T06:57:58;13.82;;;10.05;;
79212;SDS011;68639;52.380;9.822;2023-05-15T07:00:23;13.57;;;9.27;;
79212;SDS011;68639;52.380;9.822;2023-05-15T07:02:49;18.35;;;10.18;;
79212;SDS011;68639;52.380;9.822;2023-05-15T07:05:14;12.98;;;8.98;;
79212;SDS011;68639;52.380;9.822;2023-05-15T07:07:39;14.88;;;8.80;;
79212;SDS011;68639;52.380;9.822;2023-05-15T07:10:05;13.35;;;8.98;;
79212;SDS011;68639;52.380;9.822;2023-05-15T07:12:30;11.95;;;8.63;;
79212;SDS011;68639;52.380;9.822;2023-05-15T07:14:57;14.25;;;8.38;;
79212;SDS011;68639;52.380;9.822;2023-05-15T07:17:22;14.27;;;8.35;;
79212;SDS011;68639;52.380;9.822;2023-05-15T07:19:47;16.60;;;7.20;;
79212;SDS011;68639;52.380;9.822;2023-05-15T07:22:12;11.70;;;7.40;;
79212;SDS011;68639;52.380;9.822;2023-05-15T07:24:37;10.07;;;6.90;;
79212;SDS011;68639;52.380;9.822;2023-05-15T07:27:03;16.67;;;7.55;;
79212;SDS011;68639;52.380;9.822;2023-05-15T07:29:29;14.93;;;7.45;;
79212;SDS011;68639;52.380;9.822;2023-05-15T07:31:54;12.73;;;7.50;;
79212;SDS011;68639;52.380;9.822;2023-05-15T07:34:20;13.55;;;7.43;;
79212;SDS011;68639;52.380;9.822;2023-05-15T07:36:45;12.73;;;7.28;;
79212;SDS011;68639;52.380;9.822;2023-05-15T07:39:10;11.80;;;6.95;;
79212;SDS011;68639;52.380;9.822;2023-05-15T07:41:35;10.90;;;7.22;;
79212;SDS011;68639;52.380;9.822;2023-05-15T07:44:01;16.27;;;7.05;;
79212;SDS011;68639;52.380;9.822;2023-05-15T07:46:26;11.52;;;6.90;;
79212;SDS011;68639;52.380;9.822;2023-05-15T07:48:51;13.57;;;6.53;;
79212;SDS011;68639;52.380;9.822;2023-05-15T07:51:16;14.50;;;6.95;;
79212;SDS011;68639;52.380;9.822;2023-05-15T07:53:42;15.88;;;6.95;;
79212;SDS011;68639;52.380;9.822;2023-05-15T07:56:07;13.90;;;6.80;;
79212;SDS011;68639;52.380;9.822;2023-05-15T07:58:32;12.43;;;6.70;;
79212;SDS011;68639;52.380;9.822;2023-05-15T08:01:01;10.68;;;6.18;;
79212;SDS011;68639;52.380;9.822;2023-05-15T08:03:26;13.75;;;7.82;;
79212;SDS011;68639;52.380;9.822;2023-05-15T08:05:51;14.05;;;7.50;;
79212;SDS011;68639;52.380;9.822;2023-05-15T08:08:16;17.42;;;7.90;;
79212;SDS011;68639;52.380;9.822;2023-05-15T08:10:41;12.35;;;7.10;;
79212;SDS011;68639;52.380;9.822;2023-05-15T08:13:07;12.07;;;7.40;;
79212;SDS011;68639;52.380;9.822;2023-05-15T08:15:32;11.25;;;7.35;;
79212;SDS011;68639;52.380;9.822;2023-05-15T08:17:57;10.85;;;6.68;;
79212;SDS011;68639;52.380;9.822;2023-05-15T08:20:22;13.25;;;7.10;;
79212;SDS011;68639;52.380;9.822;2023-05-15T08:22:48;14.27;;;7.10;;
79212;SDS011;68639;52.380;9.822;2023-05-15T08:25:13;12.63;;;6.63;;
79212;SDS011;68639;52.380;9.822;2023-05-15T08:27:38;10.55;;;7.10;;
79212;SDS011;68639;52.380;9.822;2023-05-15T08:30:03;11.93;;;7.45;;
79212;SDS011;68639;52.380;9.822;2023-05-15T08:32:29;12.98;;;7.53;;
79212;SDS011;68639;52.380;9.822;2023-05-15T08:34:54;12.63;;;7.32;;
79212;SDS011;68639;52.380;9.822;2023-05-15T08:37:19;12.40;;;7.15;;
79212;SDS011;68639;52.380;9.822;2023-05-15T08:39:45;13.70;;;7.28;;
79212;SDS011;68639;52.380;9.822;2023-05-15T08:44:54;11.30;;;6.53;;
79212;SDS011;68639;52.380;9.822;2023-05-15T08:47:20;12.13;;;6.45;;
79212;SDS011;68639;52.380;9.822;2023-05-15T08:49:58;9.88;;;6.38;;
79212;SDS011;68639;52.380;9.822;2023-05-15T08:52:28;12.00;;;6.05;;
79212;SDS011;68639;52.380;9.822;2023-05-15T08:54:54;9.63;;;5.93;;
79212;SDS011;68639;52.380;9.822;2023-05-15T08:57:19;12.23;;;6.57;;
79212;SDS011;68639;52.380;9.822;2023-05-15T08:59:45;9.88;;;6.35;;
79212;SDS011;68639;52.380;9.822;2023-05-15T09:02:10;12.82;;;6.43;;
79212;SDS011;68639;52.380;9.822;2023-05-15T09:04:35;10.63;;;6.30;;
79212;SDS011;68639;52.380;9.822;2023-05-15T09:07:01;14.27;;;6.15;;
79212;SDS011;68639;52.380;9.822;2023-05-15T09:09:27;11.38;;;6.15;;
79212;SDS011;68639;52.380;9.822;2023-05-15T09:11:53;15.68;;;5.85;;
79212;SDS011;68639;52.380;9.822;2023-05-15T09:14:18;13.90;;;6.10;;
79212;SDS011;68639;52.380;9.822;2023-05-15T09:16:44;10.20;;;5.35;;
79212;SDS011;68639;52.380;9.822;2023-05-15T09:19:10;10.13;;;5.03;;
79212;SDS011;68639;52.380;9.822;2023-05-15T09:21:36;8.43;;;4.53;;
79212;SDS011;68639;52.380;9.822;2023-05-15T09:24:17;10.15;;;5.25;;
79212;SDS011;68639;52.380;9.822;2023-05-15T09:26:44;8.25;;;5.15;;
79212;SDS011;68639;52.380;9.822;2023-05-15T09:29:09;11.63;;;5.20;;
79212;SDS011;68639;52.380;9.822;2023-05-15T09:31:35;9.57;;;5.57;;
79212;SDS011;68639;52.380;9.822;2023-05-15T09:34:00;9.15;;;5.03;;
79212;SDS011;68639;52.380;9.822;2023-05-15T09:36:28;10.55;;;5.55;;
79212;SDS011;68639;52.380;9.822;2023-05-15T09:38:57;8.25;;;5.10;;
79212;SDS011;68639;52.380;9.822;2023-05-15T09:41:23;9.15;;;4.55;;
79212;SDS011;68639;52.380;9.822;2023-05-15T09:43:49;8.10;;;4.47;;
79212;SDS011;68639;52.380;9.822;2023-05-15T09:46:14;13.05;;;4.82;;
79212;SDS011;68639;52.380;9.822;2023-05-15T09:48:41;12.20;;;4.60;;
79212;SDS011;68639;52.380;9.822;2023-05-15T09:51:13;9.68;;;4.55;;
79212;SDS011;68639;52.380;9.822;2023-05-15T09:53:38;11.25;;;4.40;;
79212;SDS011;68639;52.380;9.822;2023-05-15T09:56:03;9.73;;;4.72;;
79212;SDS011;68639;52.380;9.822;2023-05-15T09:58:29;8.68;;;4.03;;
79212;SDS011;68639;52.380;9.822;2023-05-15T10:00:54;8.80;;;4.05;;
79212;SDS011;68639;52.380;9.822;2023-05-15T10:03:23;10.85;;;3.92;;
79212;SDS011;68639;52.380;9.822;2023-05-15T10:05:48;10.43;;;4.53;;
79212;SDS011;68639;52.380;9.822;2023-05-15T10:08:13;8.77;;;4.38;;
79212;SDS011;68639;52.380;9.822;2023-05-15T10:10:40;10.13;;;4.47;;
79212;SDS011;68639;52.380;9.822;2023-05-15T10:13:05;12.00;;;4.47;;
79212;SDS011;68639;52.380;9.822;2023-05-15T10:15:31;13.35;;;4.72;;
79212;SDS011;68639;52.380;9.822;2023-05-15T10:17:56;11.45;;;4.43;;
79212;SDS011;68639;52.380;9.822;2023-05-15T10:20:23;9.05;;;4.05;;
79212;SDS011;68639;52.380;9.822;2023-05-15T10:22:49;7.03;;;3.63;;
79212;SDS011;68639;52.380;9.822;2023-05-15T10:27:40;8.65;;;3.65;;
79212;SDS011;68639;52.380;9.822;2023-05-15T10:30:06;8.23;;;4.25;;
79212;SDS011;68639;52.380;9.822;2023-05-15T10:32:31;12.50;;;4.38;;
79212;SDS011;68639;52.380;9.822;2023-05-15T10:34:57;8.48;;;4.07;;
79212;SDS011;68639;52.380;9.822;2023-05-15T10:37:23;7.10;;;4.07;;
79212;SDS011;68639;52.380;9.822;2023-05-15T10:39:49;9.50;;;4.57;;
79212;SDS011;68639;52.380;9.822;2023-05-15T10:42:15;8.32;;;4.63;;
79212;SDS011;68639;52.380;9.822;2023-05-15T10:44:40;8.15;;;4.32;;
79212;SDS011;68639;52.380;9.822;2023-05-15T10:47:06;7.68;;;4.15;;
79212;SDS011;68639;52.380;9.822;2023-05-15T10:49:31;8.45;;;3.90;;
79212;SDS011;68639;52.380;9.822;2023-05-15T10:51:58;8.00;;;4.60;;
79212;SDS011;68639;52.380;9.822;2023-05-15T10:54:24;10.10;;;4.45;;
79212;SDS011;68639;52.380;9.822;2023-05-15T10:56:49;10.73;;;4.68;;
79212;SDS011;68639;52.380;9.822;2023-05-15T10:59:14;8.65;;;4.75;;
79212;SDS011;68639;52.380;9.822;2023-05-15T11:01:40;13.30;;;5.22;;
79212;SDS011;68639;52.380;9.822;2023-05-15T11:04:12;12.82;;;4.80;;
79212;SDS011;68639;52.380;9.822;2023-05-15T11:06:38;12.05;;;4.63;;
79212;SDS011;68639;52.380;9.822;2023-05-15T11:14:16;15.82;;;4.72;;
79212;SDS011;68639;52.380;9.822;2023-05-15T11:19:22;9.18;;;4.45;;
79212;SDS011;68639;52.380;9.822;2023-05-15T11:24:34;9.70;;;4.50;;
79212;SDS011;68639;52.380;9.822;2023-05-15T11:27:11;12.07;;;4.90;;
79212;SDS011;68639;52.380;9.822;2023-05-15T11:29:37;10.65;;;4.25;;
79212;SDS011;68639;52.380;9.822;2023-05-15T11:32:02;8.88;;;4.65;;
79212;SDS011;68639;52.380;9.822;2023-05-15T11:34:39;7.72;;;4.47;;
79212;SDS011;68639;52.380;9.822;2023-05-15T11:37:07;8.25;;;4.53;;
79212;SDS011;68639;52.380;9.822;2023-05-15T11:39:33;14.52;;;5.13;;
79212;SDS011;68639;52.380;9.822;2023-05-15T11:42:11;7.80;;;4.30;;
79212;SDS011;68639;52.380;9.822;2023-05-15T11:44:37;10.98;;;4.78;;
79212;SDS011;68639;52.380;9.822;2023-05-15T11:47:03;10.15;;;4.78;;
79212;SDS011;68639;52.380;9.822;2023-05-15T11:49:28;10.35;;;4.60;;
79212;SDS011;68639;52.380;9.822;2023-05-15T11:51:54;11.93;;;4.60;;
79212;SDS011;68639;52.380;9.822;2023-05-15T11:54:19;11.43;;;4.80;;
79212;SDS011;68639;52.380;9.822;2023-05-15T11:56:45;10.18;;;4.30;;
79212;SDS011;68639;52.380;9.822;2023-05-15T11:59:13;15.77;;;4.63;;
79212;SDS011;68639;52.380;9.822;2023-05-15T12:01:42;7.65;;;3.70;;
79212;SDS011;68639;52.380;9.822;2023-05-15T12:04:14;11.02;;;4.60;;
79212;SDS011;68639;52.380;9.822;2023-05-15T12:06:40;9.02;;;4.53;;
79212;SDS011;68639;52.380;9.822;2023-05-15T12:09:05;9.02;;;4.40;;
79212;SDS011;68639;52.380;9.822;2023-05-15T12:11:31;9.52;;;4.18;;
79212;SDS011;68639;52.380;9.822;2023-05-15T12:13:57;10.13;;;4.43;;
79212;SDS011;68639;52.380;9.822;2023-05-15T12:16:25;8.35;;;4.13;;
79212;SDS011;68639;52.380;9.822;2023-05-15T12:18:51;9.05;;;4.90;;
79212;SDS011;68639;52.380;9.822;2023-05-15T12:21:16;17.50;;;4.93;;
79212;SDS011;68639;52.380;9.822;2023-05-15T12:23:41;9.75;;;4.35;;
79212;SDS011;68639;52.380;9.822;2023-05-15T12:26:13;10.55;;;3.88;;
79212;SDS011;68639;52.380;9.822;2023-05-15T12:28:38;12.52;;;4.90;;
79212;SDS011;68639;52.380;9.822;2023-05-15T12:31:04;8.15;;;4.18;;
79212;SDS011;68639;52.380;9.822;2023-05-15T12:33:29;10.10;;;4.43;;
79212;SDS011;68639;52.380;9.822;2023-05-15T12:35:55;10.15;;;4.65;;
79212;SDS011;68639;52.380;9.822;2023-05-15T12:38:21;9.90;;;4.60;;
79212;SDS011;68639;52.380;9.822;2023-05-15T12:40:49;11.07;;;5.13;;
79212;SDS011;68639;52.380;9.822;2023-05-15T12:43:17;16.35;;;4.53;;
79212;SDS011;68639;52.380;9.822;2023-05-15T12:45:42;12.02;;;4.93;;
79212;SDS011;68639;52.380;9.822;2023-05-15T12:48:11;13.32;;;4.78;;
79212;SDS011;68639;52.380;9.822;2023-05-15T12:50:37;10.68;;;4.30;;
79212;SDS011;68639;52.380;9.822;2023-05-15T12:53:03;9.95;;;5.03;;
79212;SDS011;68639;52.380;9.822;2023-05-15T12:55:30;8.65;;;4.95;;
79212;SDS011;68639;52.380;9.822;2023-05-15T12:57:59;10.57;;;5.45;;
79212;SDS011;68639;52.380;9.822;2023-05-15T13:00:28;12.15;;;5.60;;
79212;SDS011;68639;52.380;9.822;2023-05-15T13:02:55;9.10;;;5.00;;
79212;SDS011;68639;52.380;9.822;2023-05-15T13:05:40;10.77;;;5.18;;
79212;SDS011;68639;52.380;9.822;2023-05-15T13:08:06;11.80;;;5.20;;
79212;SDS011;68639;52.380;9.822;2023-05-15T13:10:32;6.60;;;4.53;;
79212;SDS011;68639;52.380;9.822;2023-05-15T13:12:58;11.07;;;4.65;;
79212;SDS011;68639;52.380;9.822;2023-05-15T13:18:08;10.70;;;5.28;;
79212;SDS011;68639;52.380;9.822;2023-05-15T13:20:46;8.98;;;4.65;;
79212;SDS011;68639;52.380;9.822;2023-05-15T13:23:13;7.80;;;4.18;;
79212;SDS011;68639;52.380;9.822;2023-05-15T13:25:40;7.65;;;4.53;;
79212;SDS011;68639;52.380;9.822;2023-05-15T13:28:05;9.30;;;4.55;;
79212;SDS011;68639;52.380;9.822;2023-05-15T13:30:31;6.88;;;4.25;;
79212;SDS011;68639;52.380;9.822;2023-05-15T13:32:56;7.20;;;4.47;;
79212;SDS011;68639;52.380;9.822;2023-05-15T13:35:22;15.55;;;5.07;;
79212;SDS011;68639;52.380;9.822;2023-05-15T13:37:47;10.65;;;4.38;;
79212;SDS011;68639;52.380;9.822;2023-05-15T13:40:12;11.23;;;4.60;;
79212;SDS011;68639;52.380;9.822;2023-05-15T13:42:38;7.35;;;4.25;;
79212;SDS011;68639;52.380;9.822;2023-05-15T13:45:05;8.00;;;4.72;;
79212;SDS011;68639;52.380;9.822;2023-05-15T13:47:30;7.13;;;4.38;;
79212;SDS011;68639;52.380;9.822;2023-05-15T13:49:55;15.88;;;4.82;;
79212;SDS011;68639;52.380;9.822;2023-05-15T13:52:21;9.55;;;4.32;;
79212;SDS011;68639;52.380;9.822;2023-05-15T13:54:46;11.70;;;5.00;;
79212;SDS011;68639;52.380;9.822;2023-05-15T13:57:11;9.48;;;5.53;;
79212;SDS011;68639;52.380;9.822;2023-05-15T13:59:37;12.25;;;6.15;;
79212;SDS011;68639;52.380;9.822;2023-05-15T14:02:02;12.50;;;6.40;;
79212;SDS011;68639;52.380;9.822;2023-05-15T14:04:27;10.88;;;6.05;;
79212;SDS011;68639;52.380;9.822;2023-05-15T14:06:53;14.70;;;5.97;;
79212;SDS011;68639;52.380;9.822;2023-05-15T14:09:18;9.38;;;6.05;;
79212;SDS011;68639;52.380;9.822;2023-05-15T14:11:43;8.23;;;5.82;;
79212;SDS011;68639;52.380;9.822;2023-05-15T14:14:08;12.88;;;6.30;;
79212;SDS011;68639;52.380;9.822;2023-05-15T14:16:34;13.25;;;5.82;;
79212;SDS011;68639;52.380;9.822;2023-05-15T14:18:59;15.02;;;5.18;;
79212;SDS011;68639;52.380;9.822;2023-05-15T14:21:24;10.75;;;5.32;;
79212;SDS011;68639;52.380;9.822;2023-05-15T14:23:50;10.48;;;5.00;;
79212;SDS011;68639;52.380;9.822;2023-05-15T14:26:15;8.70;;;4.95;;
79212;SDS011;68639;52.380;9.822;2023-05-15T14:28:40;22.00;;;5.00;;
79212;SDS011;68639;52.380;9.822;2023-05-15T14:31:05;9.13;;;4.30;;
79212;SDS011;68639;52.380;9.822;2023-05-15T14:33:31;11.50;;;4.57;;
79212;SDS011;68639;52.380;9.822;2023-05-15T14:35:56;12.82;;;4.25;;
79212;SDS011;68639;52.380;9.822;2023-05-15T14:38:21;7.35;;;4.38;;
79212;SDS011;68639;52.380;9.822;2023-05-15T14:40:47;8.25;;;4.50;;
79212;SDS011;68639;52.380;9.822;2023-05-15T14:43:12;7.43;;;4.53;;
79212;SDS011;68639;52.380;9.822;2023-05-15T14:45:37;7.47;;;4.10;;
79212;SDS011;68639;52.380;9.822;2023-05-15T14:48:02;7.60;;;4.07;;
79212;SDS011;68639;52.380;9.822;2023-05-15T14:50:28;7.40;;;4.00;;
79212;SDS011;68639;52.380;9.822;2023-05-15T14:52:53;10.93;;;3.83;;
79212;SDS011;68639;52.380;9.822;2023-05-15T14:55:18;9.00;;;3.53;;
79212;SDS011;68639;52.380;9.822;2023-05-15T14:57:47;7.55;;;3.92;;